Flugplatz Schmidgaden

Für EDPQ sind keine METAR/TAF Berichte vorhanden.
Es werden die Flugwettermeldungen vom Flugplatz Hohenfels Army Air Field in 30 km Entfernung angezeigt.

Bericht für ETIH

vom 20.10. um 03:36 UTC

kein Wind

Sichtweite 5000 m

feuchter Dunst

keine Wolken

Temperatur 6.0°C

Taupunkt 5.0°C

Luftfeuchtigkeit 93%

Luftdruck 1019 hPa

ETIH 200336Z AUTO 00000KT 5000 BR CLR 06/05 A3008 RMK AO2 SLP193 $
Keine Prognose (TAF) verfügbar.
Impressum